sensor_id;sensor_type;location;lat;lon;timestamp;P1;durP1;ratioP1;P2;durP2;ratioP2
38805;SDS011;25635;51.146;17.162;2022-10-16T00:01:35;11.68;;;7.58;;
38805;SDS011;25635;51.146;17.162;2022-10-16T00:04:02;11.70;;;8.60;;
38805;SDS011;25635;51.146;17.162;2022-10-16T00:06:28;12.78;;;8.20;;
38805;SDS011;25635;51.146;17.162;2022-10-16T00:08:56;11.25;;;7.33;;
38805;SDS011;25635;51.146;17.162;2022-10-16T00:11:28;12.58;;;8.60;;
38805;SDS011;25635;51.146;17.162;2022-10-16T00:13:55;11.68;;;7.58;;
38805;SDS011;25635;51.146;17.162;2022-10-16T00:16:25;8.50;;;5.80;;
38805;SDS011;25635;51.146;17.162;2022-10-16T00:18:52;11.75;;;5.22;;
38805;SDS011;25635;51.146;17.162;2022-10-16T00:21:20;8.20;;;5.17;;
38805;SDS011;25635;51.146;17.162;2022-10-16T00:23:50;8.98;;;5.37;;
38805;SDS011;25635;51.146;17.162;2022-10-16T00:26:24;8.73;;;5.78;;
38805;SDS011;25635;51.146;17.162;2022-10-16T00:28:52;8.68;;;6.05;;
38805;SDS011;25635;51.146;17.162;2022-10-16T00:31:19;11.35;;;7.97;;
38805;SDS011;25635;51.146;17.162;2022-10-16T00:33:47;9.33;;;6.95;;
38805;SDS011;25635;51.146;17.162;2022-10-16T00:36:16;8.65;;;5.87;;
38805;SDS011;25635;51.146;17.162;2022-10-16T00:38:46;11.65;;;4.95;;
38805;SDS011;25635;51.146;17.162;2022-10-16T00:41:16;8.35;;;4.42;;
38805;SDS011;25635;51.146;17.162;2022-10-16T00:43:44;8.20;;;4.30;;
38805;SDS011;25635;51.146;17.162;2022-10-16T00:46:21;8.33;;;4.95;;
38805;SDS011;25635;51.146;17.162;2022-10-16T00:48:59;9.83;;;4.33;;
38805;SDS011;25635;51.146;17.162;2022-10-16T00:54:26;8.15;;;4.20;;
38805;SDS011;25635;51.146;17.162;2022-10-16T00:56:58;7.22;;;3.98;;
38805;SDS011;25635;51.146;17.162;2022-10-16T00:59:36;7.33;;;4.00;;
38805;SDS011;25635;51.146;17.162;2022-10-16T01:02:02;9.53;;;4.72;;
38805;SDS011;25635;51.146;17.162;2022-10-16T01:04:32;8.33;;;4.35;;
38805;SDS011;25635;51.146;17.162;2022-10-16T01:07:45;7.67;;;4.33;;
38805;SDS011;25635;51.146;17.162;2022-10-16T01:13:15;9.40;;;4.83;;
38805;SDS011;25635;51.146;17.162;2022-10-16T01:18:36;7.35;;;4.30;;
38805;SDS011;25635;51.146;17.162;2022-10-16T01:21:26;6.67;;;3.95;;
38805;SDS011;25635;51.146;17.162;2022-10-16T01:34:59;6.12;;;3.92;;
38805;SDS011;25635;51.146;17.162;2022-10-16T01:37:40;10.35;;;3.75;;
38805;SDS011;25635;51.146;17.162;2022-10-16T01:40:16;6.65;;;3.67;;
38805;SDS011;25635;51.146;17.162;2022-10-16T01:42:50;7.35;;;4.20;;
38805;SDS011;25635;51.146;17.162;2022-10-16T01:45:22;7.40;;;4.05;;
38805;SDS011;25635;51.146;17.162;2022-10-16T01:47:49;5.75;;;3.67;;
38805;SDS011;25635;51.146;17.162;2022-10-16T01:50:18;7.58;;;3.95;;
38805;SDS011;25635;51.146;17.162;2022-10-16T01:52:46;7.85;;;3.85;;
38805;SDS011;25635;51.146;17.162;2022-10-16T01:55:18;7.12;;;4.08;;
38805;SDS011;25635;51.146;17.162;2022-10-16T01:57:49;6.28;;;3.90;;
38805;SDS011;25635;51.146;17.162;2022-10-16T02:00:17;10.98;;;4.42;;
38805;SDS011;25635;51.146;17.162;2022-10-16T02:02:47;5.97;;;3.72;;
38805;SDS011;25635;51.146;17.162;2022-10-16T02:05:25;7.47;;;3.70;;
38805;SDS011;25635;51.146;17.162;2022-10-16T02:07:56;7.05;;;3.95;;
38805;SDS011;25635;51.146;17.162;2022-10-16T02:10:22;7.92;;;3.62;;
38805;SDS011;25635;51.146;17.162;2022-10-16T02:12:54;7.62;;;3.83;;
38805;SDS011;25635;51.146;17.162;2022-10-16T02:15:24;6.30;;;3.87;;
38805;SDS011;25635;51.146;17.162;2022-10-16T02:17:51;8.13;;;4.15;;
38805;SDS011;25635;51.146;17.162;2022-10-16T02:20:17;7.87;;;3.72;;
38805;SDS011;25635;51.146;17.162;2022-10-16T02:22:48;9.13;;;4.80;;
38805;SDS011;25635;51.146;17.162;2022-10-16T02:25:30;7.45;;;3.40;;
38805;SDS011;25635;51.146;17.162;2022-10-16T02:28:03;9.73;;;4.03;;
38805;SDS011;25635;51.146;17.162;2022-10-16T02:30:47;7.08;;;4.00;;
38805;SDS011;25635;51.146;17.162;2022-10-16T02:33:30;7.85;;;4.50;;
38805;SDS011;25635;51.146;17.162;2022-10-16T02:35:59;7.50;;;4.55;;
38805;SDS011;25635;51.146;17.162;2022-10-16T02:38:25;8.58;;;4.15;;
38805;SDS011;25635;51.146;17.162;2022-10-16T02:40:52;7.37;;;4.22;;
38805;SDS011;25635;51.146;17.162;2022-10-16T02:43:20;6.05;;;3.75;;
38805;SDS011;25635;51.146;17.162;2022-10-16T02:45:46;8.20;;;3.80;;
38805;SDS011;25635;51.146;17.162;2022-10-16T02:48:12;7.97;;;4.33;;
38805;SDS011;25635;51.146;17.162;2022-10-16T02:50:38;8.75;;;4.30;;
38805;SDS011;25635;51.146;17.162;2022-10-16T02:53:04;6.60;;;3.92;;
38805;SDS011;25635;51.146;17.162;2022-10-16T02:55:31;6.28;;;3.72;;
38805;SDS011;25635;51.146;17.162;2022-10-16T02:57:57;6.58;;;4.08;;
38805;SDS011;25635;51.146;17.162;2022-10-16T03:00:23;6.97;;;3.90;;
38805;SDS011;25635;51.146;17.162;2022-10-16T03:02:50;8.10;;;4.25;;
38805;SDS011;25635;51.146;17.162;2022-10-16T03:05:16;9.20;;;4.60;;
38805;SDS011;25635;51.146;17.162;2022-10-16T03:07:42;7.40;;;4.33;;
38805;SDS011;25635;51.146;17.162;2022-10-16T03:10:08;6.85;;;3.77;;
38805;SDS011;25635;51.146;17.162;2022-10-16T03:12:34;6.20;;;3.70;;
38805;SDS011;25635;51.146;17.162;2022-10-16T03:15:01;8.08;;;4.00;;
38805;SDS011;25635;51.146;17.162;2022-10-16T03:17:28;8.10;;;3.80;;
38805;SDS011;25635;51.146;17.162;2022-10-16T03:19:54;7.00;;;3.98;;
38805;SDS011;25635;51.146;17.162;2022-10-16T03:22:20;7.05;;;4.03;;
38805;SDS011;25635;51.146;17.162;2022-10-16T03:24:46;7.20;;;3.70;;
38805;SDS011;25635;51.146;17.162;2022-10-16T03:27:12;6.87;;;3.90;;
38805;SDS011;25635;51.146;17.162;2022-10-16T03:29:39;6.85;;;3.95;;
38805;SDS011;25635;51.146;17.162;2022-10-16T03:32:05;6.87;;;4.33;;
38805;SDS011;25635;51.146;17.162;2022-10-16T03:34:31;7.50;;;4.67;;
38805;SDS011;25635;51.146;17.162;2022-10-16T03:36:57;6.85;;;4.42;;
38805;SDS011;25635;51.146;17.162;2022-10-16T03:39:23;8.15;;;4.67;;
38805;SDS011;25635;51.146;17.162;2022-10-16T03:41:50;7.10;;;4.58;;
38805;SDS011;25635;51.146;17.162;2022-10-16T03:44:16;6.78;;;4.20;;
38805;SDS011;25635;51.146;17.162;2022-10-16T03:46:42;6.35;;;4.17;;
38805;SDS011;25635;51.146;17.162;2022-10-16T03:49:08;7.30;;;4.40;;
38805;SDS011;25635;51.146;17.162;2022-10-16T03:51:34;9.23;;;4.85;;
38805;SDS011;25635;51.146;17.162;2022-10-16T03:54:00;6.40;;;4.33;;
38805;SDS011;25635;51.146;17.162;2022-10-16T03:56:27;7.92;;;4.28;;
38805;SDS011;25635;51.146;17.162;2022-10-16T03:58:53;5.95;;;3.98;;
38805;SDS011;25635;51.146;17.162;2022-10-16T04:01:19;6.95;;;4.08;;
38805;SDS011;25635;51.146;17.162;2022-10-16T04:03:45;7.08;;;4.30;;
38805;SDS011;25635;51.146;17.162;2022-10-16T04:06:12;6.72;;;4.33;;
38805;SDS011;25635;51.146;17.162;2022-10-16T04:08:38;6.83;;;4.03;;
38805;SDS011;25635;51.146;17.162;2022-10-16T04:11:04;7.80;;;4.67;;
38805;SDS011;25635;51.146;17.162;2022-10-16T04:13:31;8.48;;;4.40;;
38805;SDS011;25635;51.146;17.162;2022-10-16T04:15:57;7.53;;;4.55;;
38805;SDS011;25635;51.146;17.162;2022-10-16T04:18:23;8.28;;;4.53;;
38805;SDS011;25635;51.146;17.162;2022-10-16T04:20:51;8.13;;;4.58;;
38805;SDS011;25635;51.146;17.162;2022-10-16T04:23:18;7.03;;;4.72;;
38805;SDS011;25635;51.146;17.162;2022-10-16T04:25:44;8.38;;;4.80;;
38805;SDS011;25635;51.146;17.162;2022-10-16T04:28:10;7.53;;;4.80;;
38805;SDS011;25635;51.146;17.162;2022-10-16T04:30:40;7.37;;;4.70;;
38805;SDS011;25635;51.146;17.162;2022-10-16T04:33:07;7.87;;;4.47;;
38805;SDS011;25635;51.146;17.162;2022-10-16T04:35:35;6.65;;;4.17;;
38805;SDS011;25635;51.146;17.162;2022-10-16T04:38:01;7.60;;;4.53;;
38805;SDS011;25635;51.146;17.162;2022-10-16T04:40:28;5.75;;;3.83;;
38805;SDS011;25635;51.146;17.162;2022-10-16T04:42:56;6.30;;;3.98;;
38805;SDS011;25635;51.146;17.162;2022-10-16T04:45:23;7.08;;;4.30;;
38805;SDS011;25635;51.146;17.162;2022-10-16T04:47:49;7.53;;;3.95;;
38805;SDS011;25635;51.146;17.162;2022-10-16T04:50:15;6.00;;;3.70;;
38805;SDS011;25635;51.146;17.162;2022-10-16T04:52:41;5.90;;;3.22;;
38805;SDS011;25635;51.146;17.162;2022-10-16T04:55:07;8.63;;;4.03;;
38805;SDS011;25635;51.146;17.162;2022-10-16T04:57:34;6.50;;;3.65;;
38805;SDS011;25635;51.146;17.162;2022-10-16T05:00:00;7.12;;;3.60;;
38805;SDS011;25635;51.146;17.162;2022-10-16T05:02:26;8.63;;;4.10;;
38805;SDS011;25635;51.146;17.162;2022-10-16T05:04:52;7.25;;;4.28;;
38805;SDS011;25635;51.146;17.162;2022-10-16T05:07:25;6.47;;;3.52;;
38805;SDS011;25635;51.146;17.162;2022-10-16T05:09:55;10.72;;;4.22;;
38805;SDS011;25635;51.146;17.162;2022-10-16T05:12:21;6.72;;;4.37;;
38805;SDS011;25635;51.146;17.162;2022-10-16T05:14:47;8.15;;;4.60;;
38805;SDS011;25635;51.146;17.162;2022-10-16T05:17:13;10.30;;;5.10;;
38805;SDS011;25635;51.146;17.162;2022-10-16T05:19:40;7.10;;;4.47;;
38805;SDS011;25635;51.146;17.162;2022-10-16T05:22:06;7.42;;;4.37;;
38805;SDS011;25635;51.146;17.162;2022-10-16T05:24:32;6.72;;;4.20;;
38805;SDS011;25635;51.146;17.162;2022-10-16T05:26:59;6.08;;;3.77;;
38805;SDS011;25635;51.146;17.162;2022-10-16T05:29:25;6.95;;;3.98;;
38805;SDS011;25635;51.146;17.162;2022-10-16T05:31:52;6.33;;;4.12;;
38805;SDS011;25635;51.146;17.162;2022-10-16T05:34:19;6.12;;;3.92;;
38805;SDS011;25635;51.146;17.162;2022-10-16T05:36:46;7.58;;;4.22;;
38805;SDS011;25635;51.146;17.162;2022-10-16T05:39:14;8.75;;;4.30;;
38805;SDS011;25635;51.146;17.162;2022-10-16T05:41:42;6.58;;;4.00;;
38805;SDS011;25635;51.146;17.162;2022-10-16T05:44:10;7.67;;;4.30;;
38805;SDS011;25635;51.146;17.162;2022-10-16T05:46:36;7.05;;;4.30;;
38805;SDS011;25635;51.146;17.162;2022-10-16T05:49:03;8.20;;;4.65;;
38805;SDS011;25635;51.146;17.162;2022-10-16T05:51:29;7.70;;;4.60;;
38805;SDS011;25635;51.146;17.162;2022-10-16T05:53:55;7.58;;;4.12;;
38805;SDS011;25635;51.146;17.162;2022-10-16T05:56:22;6.85;;;4.70;;
38805;SDS011;25635;51.146;17.162;2022-10-16T05:58:48;6.85;;;4.30;;
38805;SDS011;25635;51.146;17.162;2022-10-16T06:01:15;7.87;;;4.90;;
38805;SDS011;25635;51.146;17.162;2022-10-16T06:03:44;8.95;;;5.00;;
38805;SDS011;25635;51.146;17.162;2022-10-16T06:06:11;8.40;;;5.50;;
38805;SDS011;25635;51.146;17.162;2022-10-16T06:08:40;8.85;;;5.25;;
38805;SDS011;25635;51.146;17.162;2022-10-16T06:11:10;8.48;;;4.90;;
38805;SDS011;25635;51.146;17.162;2022-10-16T06:13:40;7.75;;;4.53;;
38805;SDS011;25635;51.146;17.162;2022-10-16T06:16:08;6.62;;;4.40;;
38805;SDS011;25635;51.146;17.162;2022-10-16T06:18:36;7.05;;;4.62;;
38805;SDS011;25635;51.146;17.162;2022-10-16T06:21:09;7.33;;;4.75;;
38805;SDS011;25635;51.146;17.162;2022-10-16T06:23:51;7.28;;;4.40;;
38805;SDS011;25635;51.146;17.162;2022-10-16T06:26:20;8.13;;;4.37;;
38805;SDS011;25635;51.146;17.162;2022-10-16T06:28:49;7.62;;;4.60;;
38805;SDS011;25635;51.146;17.162;2022-10-16T06:31:15;8.38;;;4.70;;
38805;SDS011;25635;51.146;17.162;2022-10-16T06:33:43;8.08;;;5.00;;
38805;SDS011;25635;51.146;17.162;2022-10-16T06:36:12;9.23;;;4.62;;
38805;SDS011;25635;51.146;17.162;2022-10-16T06:38:42;7.00;;;4.17;;
38805;SDS011;25635;51.146;17.162;2022-10-16T06:41:13;7.05;;;4.67;;
38805;SDS011;25635;51.146;17.162;2022-10-16T06:43:43;6.97;;;4.42;;
38805;SDS011;25635;51.146;17.162;2022-10-16T06:46:11;6.87;;;4.60;;
38805;SDS011;25635;51.146;17.162;2022-10-16T06:48:40;9.08;;;4.90;;
38805;SDS011;25635;51.146;17.162;2022-10-16T06:51:18;8.20;;;4.30;;
38805;SDS011;25635;51.146;17.162;2022-10-16T06:53:48;8.68;;;4.42;;
38805;SDS011;25635;51.146;17.162;2022-10-16T06:56:21;10.00;;;4.20;;
38805;SDS011;25635;51.146;17.162;2022-10-16T06:58:50;8.48;;;4.22;;
38805;SDS011;25635;51.146;17.162;2022-10-16T07:01:19;9.15;;;4.70;;
38805;SDS011;25635;51.146;17.162;2022-10-16T07:03:48;7.92;;;4.70;;
38805;SDS011;25635;51.146;17.162;2022-10-16T07:06:16;6.60;;;4.20;;
38805;SDS011;25635;51.146;17.162;2022-10-16T07:08:45;7.00;;;4.45;;
38805;SDS011;25635;51.146;17.162;2022-10-16T07:11:13;9.20;;;5.00;;
38805;SDS011;25635;51.146;17.162;2022-10-16T07:13:43;7.22;;;4.22;;
38805;SDS011;25635;51.146;17.162;2022-10-16T07:16:15;7.62;;;3.92;;
38805;SDS011;25635;51.146;17.162;2022-10-16T07:18:41;6.70;;;4.28;;
38805;SDS011;25635;51.146;17.162;2022-10-16T07:21:11;6.03;;;3.27;;
38805;SDS011;25635;51.146;17.162;2022-10-16T07:23:43;7.78;;;3.80;;
38805;SDS011;25635;51.146;17.162;2022-10-16T07:26:09;6.47;;;3.87;;
38805;SDS011;25635;51.146;17.162;2022-10-16T07:28:36;6.83;;;3.70;;
38805;SDS011;25635;51.146;17.162;2022-10-16T07:31:06;6.47;;;3.87;;
38805;SDS011;25635;51.146;17.162;2022-10-16T07:33:42;5.53;;;3.10;;
38805;SDS011;25635;51.146;17.162;2022-10-16T07:36:16;6.58;;;3.15;;
38805;SDS011;25635;51.146;17.162;2022-10-16T07:38:48;6.47;;;3.15;;
38805;SDS011;25635;51.146;17.162;2022-10-16T07:41:19;7.65;;;3.10;;
38805;SDS011;25635;51.146;17.162;2022-10-16T07:43:52;6.40;;;3.15;;
38805;SDS011;25635;51.146;17.162;2022-10-16T07:46:24;5.95;;;2.92;;
38805;SDS011;25635;51.146;17.162;2022-10-16T07:48:55;5.78;;;2.87;;
38805;SDS011;25635;51.146;17.162;2022-10-16T07:51:22;5.75;;;3.30;;
38805;SDS011;25635;51.146;17.162;2022-10-16T07:53:50;6.25;;;3.27;;
38805;SDS011;25635;51.146;17.162;2022-10-16T07:56:17;5.55;;;3.12;;
38805;SDS011;25635;51.146;17.162;2022-10-16T07:58:45;5.42;;;3.10;;
38805;SDS011;25635;51.146;17.162;2022-10-16T08:01:13;8.35;;;3.62;;
38805;SDS011;25635;51.146;17.162;2022-10-16T08:03:42;8.23;;;3.77;;
38805;SDS011;25635;51.146;17.162;2022-10-16T08:06:14;6.55;;;3.62;;
38805;SDS011;25635;51.146;17.162;2022-10-16T08:08:41;5.42;;;3.40;;
38805;SDS011;25635;51.146;17.162;2022-10-16T08:11:07;5.85;;;3.30;;
38805;SDS011;25635;51.146;17.162;2022-10-16T08:13:33;6.08;;;3.33;;
38805;SDS011;25635;51.146;17.162;2022-10-16T08:16:00;5.85;;;3.50;;
38805;SDS011;25635;51.146;17.162;2022-10-16T08:18:27;6.03;;;3.37;;
38805;SDS011;25635;51.146;17.162;2022-10-16T08:20:56;6.33;;;3.37;;
38805;SDS011;25635;51.146;17.162;2022-10-16T08:23:26;6.67;;;3.33;;
38805;SDS011;25635;51.146;17.162;2022-10-16T08:25:53;5.92;;;2.72;;
38805;SDS011;25635;51.146;17.162;2022-10-16T08:28:21;5.95;;;3.20;;
38805;SDS011;25635;51.146;17.162;2022-10-16T08:30:48;5.22;;;2.72;;
38805;SDS011;25635;51.146;17.162;2022-10-16T08:33:14;6.25;;;3.33;;
38805;SDS011;25635;51.146;17.162;2022-10-16T08:35:40;5.83;;;3.12;;
38805;SDS011;25635;51.146;17.162;2022-10-16T08:38:06;8.08;;;3.50;;
38805;SDS011;25635;51.146;17.162;2022-10-16T08:40:34;6.75;;;3.37;;
38805;SDS011;25635;51.146;17.162;2022-10-16T08:46:04;5.90;;;3.40;;
38805;SDS011;25635;51.146;17.162;2022-10-16T08:51:19;6.17;;;3.00;;
38805;SDS011;25635;51.146;17.162;2022-10-16T08:53:58;5.55;;;3.47;;
38805;SDS011;25635;51.146;17.162;2022-10-16T08:56:28;5.80;;;3.15;;
38805;SDS011;25635;51.146;17.162;2022-10-16T08:58:55;7.42;;;3.80;;
38805;SDS011;25635;51.146;17.162;2022-10-16T09:01:27;8.48;;;3.72;;
38805;SDS011;25635;51.146;17.162;2022-10-16T09:07:21;6.55;;;3.70;;
38805;SDS011;25635;51.146;17.162;2022-10-16T09:16:01;4.78;;;2.65;;
38805;SDS011;25635;51.146;17.162;2022-10-16T09:21:28;5.60;;;3.30;;
38805;SDS011;25635;51.146;17.162;2022-10-16T09:24:15;6.67;;;3.30;;
38805;SDS011;25635;51.146;17.162;2022-10-16T09:26:47;5.28;;;3.05;;
38805;SDS011;25635;51.146;17.162;2022-10-16T09:29:14;6.75;;;3.77;;
38805;SDS011;25635;51.146;17.162;2022-10-16T09:31:45;5.05;;;3.00;;
38805;SDS011;25635;51.146;17.162;2022-10-16T09:37:01;6.20;;;3.37;;
38805;SDS011;25635;51.146;17.162;2022-10-16T09:39:49;6.40;;;3.50;;
38805;SDS011;25635;51.146;17.162;2022-10-16T09:43:16;7.47;;;4.03;;
38805;SDS011;25635;51.146;17.162;2022-10-16T09:44:57;5.90;;;3.40;;
38805;SDS011;25635;51.146;17.162;2022-10-16T09:47:25;6.33;;;3.75;;
38805;SDS011;25635;51.146;17.162;2022-10-16T09:49:54;6.62;;;3.47;;
38805;SDS011;25635;51.146;17.162;2022-10-16T09:52:28;7.83;;;3.25;;
38805;SDS011;25635;51.146;17.162;2022-10-16T09:54:57;6.92;;;3.33;;
38805;SDS011;25635;51.146;17.162;2022-10-16T09:57:27;6.75;;;2.90;;
38805;SDS011;25635;51.146;17.162;2022-10-16T09:59:58;5.72;;;3.75;;
38805;SDS011;25635;51.146;17.162;2022-10-16T10:02:36;5.70;;;3.30;;
38805;SDS011;25635;51.146;17.162;2022-10-16T10:05:04;7.00;;;3.45;;
38805;SDS011;25635;51.146;17.162;2022-10-16T10:07:37;6.33;;;3.33;;
38805;SDS011;25635;51.146;17.162;2022-10-16T10:10:17;6.37;;;3.15;;
38805;SDS011;25635;51.146;17.162;2022-10-16T10:12:54;5.05;;;2.98;;
38805;SDS011;25635;51.146;17.162;2022-10-16T10:15:21;7.30;;;2.50;;
38805;SDS011;25635;51.146;17.162;2022-10-16T10:22:58;5.28;;;2.10;;
38805;SDS011;25635;51.146;17.162;2022-10-16T10:31:07;3.80;;;1.85;;
38805;SDS011;25635;51.146;17.162;2022-10-16T10:34:06;3.95;;;1.77;;
38805;SDS011;25635;51.146;17.162;2022-10-16T10:37:00;4.35;;;2.02;;
38805;SDS011;25635;51.146;17.162;2022-10-16T10:39:34;3.87;;;1.82;;
38805;SDS011;25635;51.146;17.162;2022-10-16T10:42:21;3.50;;;1.77;;
38805;SDS011;25635;51.146;17.162;2022-10-16T10:45:18;4.92;;;1.80;;
38805;SDS011;25635;51.146;17.162;2022-10-16T10:51:13;4.05;;;1.80;;
38805;SDS011;25635;51.146;17.162;2022-10-16T10:57:09;3.08;;;1.50;;
38805;SDS011;25635;51.146;17.162;2022-10-16T11:11:04;4.25;;;1.80;;
38805;SDS011;25635;51.146;17.162;2022-10-16T11:16:39;3.50;;;1.62;;
38805;SDS011;25635;51.146;17.162;2022-10-16T11:19:38;3.08;;;1.45;;
38805;SDS011;25635;51.146;17.162;2022-10-16T11:25:05;4.08;;;1.10;;
38805;SDS011;25635;51.146;17.162;2022-10-16T11:30:34;2.77;;;1.00;;
38805;SDS011;25635;51.146;17.162;2022-10-16T11:36:31;4.95;;;1.27;;
38805;SDS011;25635;51.146;17.162;2022-10-16T11:39:15;2.50;;;0.90;;
38805;SDS011;25635;51.146;17.162;2022-10-16T11:41:51;3.05;;;1.20;;
38805;SDS011;25635;51.146;17.162;2022-10-16T11:50:24;2.80;;;1.20;;
38805;SDS011;25635;51.146;17.162;2022-10-16T11:56:02;3.22;;;1.27;;
38805;SDS011;25635;51.146;17.162;2022-10-16T12:07:03;3.85;;;1.80;;
38805;SDS011;25635;51.146;17.162;2022-10-16T12:09:40;4.33;;;1.67;;
38805;SDS011;25635;51.146;17.162;2022-10-16T12:17:54;4.65;;;2.55;;
38805;SDS011;25635;51.146;17.162;2022-10-16T12:20:30;5.42;;;2.67;;
38805;SDS011;25635;51.146;17.162;2022-10-16T12:23:02;4.05;;;2.20;;
38805;SDS011;25635;51.146;17.162;2022-10-16T12:25:33;6.95;;;3.75;;
38805;SDS011;25635;51.146;17.162;2022-10-16T12:30:57;7.70;;;3.92;;
38805;SDS011;25635;51.146;17.162;2022-10-16T12:33:34;8.80;;;4.50;;
38805;SDS011;25635;51.146;17.162;2022-10-16T12:36:45;7.62;;;4.87;;
38805;SDS011;25635;51.146;17.162;2022-10-16T12:38:46;8.03;;;3.60;;
38805;SDS011;25635;51.146;17.162;2022-10-16T12:41:23;5.97;;;3.47;;
38805;SDS011;25635;51.146;17.162;2022-10-16T12:43:57;7.92;;;3.22;;
38805;SDS011;25635;51.146;17.162;2022-10-16T12:51:45;5.08;;;2.77;;
38805;SDS011;25635;51.146;17.162;2022-10-16T13:06:22;7.10;;;4.53;;
38805;SDS011;25635;51.146;17.162;2022-10-16T13:09:15;9.58;;;4.55;;
38805;SDS011;25635;51.146;17.162;2022-10-16T13:17:30;7.97;;;4.75;;
38805;SDS011;25635;51.146;17.162;2022-10-16T13:26:05;6.42;;;3.90;;
38805;SDS011;25635;51.146;17.162;2022-10-16T13:28:50;7.12;;;4.47;;
38805;SDS011;25635;51.146;17.162;2022-10-16T13:31:18;7.80;;;4.37;;
38805;SDS011;25635;51.146;17.162;2022-10-16T13:33:49;6.97;;;4.35;;
38805;SDS011;25635;51.146;17.162;2022-10-16T13:38:59;5.87;;;4.17;;
38805;SDS011;25635;51.146;17.162;2022-10-16T13:41:42;6.42;;;4.30;;
38805;SDS011;25635;51.146;17.162;2022-10-16T13:44:15;6.78;;;4.67;;
38805;SDS011;25635;51.146;17.162;2022-10-16T13:46:45;6.67;;;4.05;;
38805;SDS011;25635;51.146;17.162;2022-10-16T13:49:13;7.00;;;4.87;;
38805;SDS011;25635;51.146;17.162;2022-10-16T13:51:53;8.75;;;4.85;;
38805;SDS011;25635;51.146;17.162;2022-10-16T13:54:22;7.55;;;5.12;;
38805;SDS011;25635;51.146;17.162;2022-10-16T13:56:50;7.83;;;4.78;;
38805;SDS011;25635;51.146;17.162;2022-10-16T13:59:26;7.50;;;4.37;;
38805;SDS011;25635;51.146;17.162;2022-10-16T14:02:04;7.70;;;5.33;;
38805;SDS011;25635;51.146;17.162;2022-10-16T14:04:32;6.42;;;4.58;;
38805;SDS011;25635;51.146;17.162;2022-10-16T14:06:59;9.30;;;5.08;;
38805;SDS011;25635;51.146;17.162;2022-10-16T14:09:26;6.12;;;4.10;;
38805;SDS011;25635;51.146;17.162;2022-10-16T14:12:02;6.12;;;3.85;;
38805;SDS011;25635;51.146;17.162;2022-10-16T14:14:42;6.30;;;4.37;;
38805;SDS011;25635;51.146;17.162;2022-10-16T14:19:59;6.37;;;4.28;;
38805;SDS011;25635;51.146;17.162;2022-10-16T14:22:30;6.55;;;4.45;;
38805;SDS011;25635;51.146;17.162;2022-10-16T14:25:00;7.20;;;4.78;;
38805;SDS011;25635;51.146;17.162;2022-10-16T14:27:35;7.05;;;4.90;;
38805;SDS011;25635;51.146;17.162;2022-10-16T14:32:59;6.50;;;4.60;;
38805;SDS011;25635;51.146;17.162;2022-10-16T14:35:36;10.43;;;4.87;;
38805;SDS011;25635;51.146;17.162;2022-10-16T14:38:05;7.05;;;4.33;;
38805;SDS011;25635;51.146;17.162;2022-10-16T14:40:36;6.47;;;4.67;;
38805;SDS011;25635;51.146;17.162;2022-10-16T14:43:03;7.45;;;5.17;;
38805;SDS011;25635;51.146;17.162;2022-10-16T14:45:32;7.58;;;5.47;;
38805;SDS011;25635;51.146;17.162;2022-10-16T14:48:01;7.55;;;5.00;;
38805;SDS011;25635;51.146;17.162;2022-10-16T14:50:32;8.40;;;5.00;;
38805;SDS011;25635;51.146;17.162;2022-10-16T14:52:58;6.72;;;4.70;;
38805;SDS011;25635;51.146;17.162;2022-10-16T14:55:25;8.75;;;4.72;;
38805;SDS011;25635;51.146;17.162;2022-10-16T14:57:51;6.80;;;4.62;;
38805;SDS011;25635;51.146;17.162;2022-10-16T15:00:19;6.87;;;4.53;;
38805;SDS011;25635;51.146;17.162;2022-10-16T15:02:48;6.53;;;4.65;;
38805;SDS011;25635;51.146;17.162;2022-10-16T15:05:20;8.10;;;4.75;;
38805;SDS011;25635;51.146;17.162;2022-10-16T15:07:50;7.25;;;4.72;;
38805;SDS011;25635;51.146;17.162;2022-10-16T15:10:19;8.63;;;5.03;;
38805;SDS011;25635;51.146;17.162;2022-10-16T15:12:48;8.38;;;5.42;;
38805;SDS011;25635;51.146;17.162;2022-10-16T15:15:21;9.10;;;5.62;;
38805;SDS011;25635;51.146;17.162;2022-10-16T15:17:50;8.63;;;5.60;;
38805;SDS011;25635;51.146;17.162;2022-10-16T15:20:22;7.33;;;4.80;;
38805;SDS011;25635;51.146;17.162;2022-10-16T15:22:53;9.00;;;4.25;;
38805;SDS011;25635;51.146;17.162;2022-10-16T15:25:36;8.43;;;4.37;;
38805;SDS011;25635;51.146;17.162;2022-10-16T15:28:07;9.08;;;5.00;;
38805;SDS011;25635;51.146;17.162;2022-10-16T15:30:35;10.35;;;4.95;;
38805;SDS011;25635;51.146;17.162;2022-10-16T15:33:02;9.40;;;5.03;;
38805;SDS011;25635;51.146;17.162;2022-10-16T15:35:31;9.18;;;5.47;;
38805;SDS011;25635;51.146;17.162;2022-10-16T15:37:57;7.85;;;5.12;;
38805;SDS011;25635;51.146;17.162;2022-10-16T15:40:24;8.80;;;5.42;;
38805;SDS011;25635;51.146;17.162;2022-10-16T15:42:51;8.28;;;5.15;;
38805;SDS011;25635;51.146;17.162;2022-10-16T15:45:20;7.78;;;5.05;;
38805;SDS011;25635;51.146;17.162;2022-10-16T15:47:46;6.83;;;5.22;;
38805;SDS011;25635;51.146;17.162;2022-10-16T15:50:13;8.43;;;6.62;;
38805;SDS011;25635;51.146;17.162;2022-10-16T15:52:41;9.70;;;6.50;;
38805;SDS011;25635;51.146;17.162;2022-10-16T15:55:08;12.25;;;8.33;;
38805;SDS011;25635;51.146;17.162;2022-10-16T15:57:40;14.20;;;9.95;;
38805;SDS011;25635;51.146;17.162;2022-10-16T16:00:12;14.03;;;10.08;;
38805;SDS011;25635;51.146;17.162;2022-10-16T16:02:42;13.60;;;9.28;;
38805;SDS011;25635;51.146;17.162;2022-10-16T16:05:11;15.08;;;9.20;;
38805;SDS011;25635;51.146;17.162;2022-10-16T16:07:38;14.80;;;9.13;;
38805;SDS011;25635;51.146;17.162;2022-10-16T16:10:06;17.80;;;8.75;;
38805;SDS011;25635;51.146;17.162;2022-10-16T16:12:35;11.35;;;8.00;;
38805;SDS011;25635;51.146;17.162;2022-10-16T16:15:03;13.40;;;9.28;;
38805;SDS011;25635;51.146;17.162;2022-10-16T16:17:32;14.23;;;9.25;;
38805;SDS011;25635;51.146;17.162;2022-10-16T16:19:59;12.18;;;8.88;;
38805;SDS011;25635;51.146;17.162;2022-10-16T16:22:26;11.08;;;8.18;;
38805;SDS011;25635;51.146;17.162;2022-10-16T16:24:53;11.28;;;8.23;;
38805;SDS011;25635;51.146;17.162;2022-10-16T16:27:19;12.15;;;7.67;;
38805;SDS011;25635;51.146;17.162;2022-10-16T16:29:46;13.03;;;8.15;;
38805;SDS011;25635;51.146;17.162;2022-10-16T16:32:13;13.70;;;7.85;;
38805;SDS011;25635;51.146;17.162;2022-10-16T16:34:40;13.08;;;8.25;;
38805;SDS011;25635;51.146;17.162;2022-10-16T16:37:06;11.50;;;7.55;;
38805;SDS011;25635;51.146;17.162;2022-10-16T16:39:32;12.28;;;8.20;;
38805;SDS011;25635;51.146;17.162;2022-10-16T16:41:58;11.73;;;8.08;;
38805;SDS011;25635;51.146;17.162;2022-10-16T16:44:24;12.80;;;7.55;;
38805;SDS011;25635;51.146;17.162;2022-10-16T16:46:51;12.30;;;8.00;;
38805;SDS011;25635;51.146;17.162;2022-10-16T16:49:18;12.43;;;8.20;;
38805;SDS011;25635;51.146;17.162;2022-10-16T16:51:44;14.38;;;9.68;;
38805;SDS011;25635;51.146;17.162;2022-10-16T16:54:10;13.18;;;10.00;;
38805;SDS011;25635;51.146;17.162;2022-10-16T16:56:38;14.75;;;10.20;;
38805;SDS011;25635;51.146;17.162;2022-10-16T16:59:11;13.70;;;9.58;;
38805;SDS011;25635;51.146;17.162;2022-10-16T17:01:45;18.85;;;9.63;;
38805;SDS011;25635;51.146;17.162;2022-10-16T17:04:11;14.10;;;9.28;;
38805;SDS011;25635;51.146;17.162;2022-10-16T17:06:40;14.03;;;10.05;;
38805;SDS011;25635;51.146;17.162;2022-10-16T17:09:07;15.68;;;9.70;;
38805;SDS011;25635;51.146;17.162;2022-10-16T17:11:36;12.45;;;9.23;;
38805;SDS011;25635;51.146;17.162;2022-10-16T17:14:02;13.05;;;9.55;;
38805;SDS011;25635;51.146;17.162;2022-10-16T17:16:33;14.18;;;10.18;;